Seas 3 — A8ZT5 — position and weather

sailwx.info

Track history (hours):
 
Tides and Currents Weather Stations Pressure Air Temp Water Temp Dewpoint Dewpoint Depression Visibility Wind Speed Wind Dir Waves Ship Positions

Seas 3

Last reported at 2017-Oct-18 16:33 UTC. Time now 2017-Oct-20 16:13 UTC.
Position N 26°13' W 079°21'.

Length 190 m; draft 10.8 m.

Type: Ship. MMSI: 636015295.

Date/timePositionNaut miles runAvg speedWind from/ knotsBaromVisibWave heightAir tempDewpointWater temp
2017-Oct-18 16:33N 26°13' W 079°21'113.7
2017-Oct-18 16:28N 26°12' W 079°21'1513.8
2017-Oct-18 15:24N 25°58' W 079°24'513.8
2017-Oct-18 15:00N 25°52' W 079°25'  
2017-Oct-08 20:33N 20°16' W 095°12'113.1
2017-Oct-08 20:28N 20°15' W 095°12'713.3
2017-Oct-08 19:55N 20°09' W 095°17'1813.4
2017-Oct-08 18:34N 19°55' W 095°29'113.6
2017-Oct-08 18:30N 19°55' W 095°30'1013.5
2017-Oct-08 17:44N 19°46' W 095°36'313.2
2017-Oct-08 17:30N 19°44' W 095°38'612.8
2017-Oct-08 17:00N 19°38' W 095°42'  
Track history (hours):
 
Tides and Currents Weather Stations Pressure Air Temp Water Temp Dewpoint Dewpoint Depression Visibility Wind Speed Wind Dir Waves Ship Positions

Seas 3

Last reported at 2017-Oct-18 16:33 UTC. Time now 2017-Oct-20 16:13 UTC.
Position N 26°13' W 079°21'.

Length 190 m; draft 10.8 m.

Type: Ship. MMSI: 636015295.

Date/timePositionNaut miles runAvg speedWind from/ knotsBaromVisibWave heightAir tempDewpointWater temp
2017-Oct-18 16:33N 26°13' W 079°21'113.7
2017-Oct-18 16:28N 26°12' W 079°21'1513.8
2017-Oct-18 15:24N 25°58' W 079°24'513.8
2017-Oct-18 15:00N 25°52' W 079°25'  
2017-Oct-08 20:33N 20°16' W 095°12'113.1
2017-Oct-08 20:28N 20°15' W 095°12'713.3
2017-Oct-08 19:55N 20°09' W 095°17'1813.4
2017-Oct-08 18:34N 19°55' W 095°29'113.6
2017-Oct-08 18:30N 19°55' W 095°30'1013.5
2017-Oct-08 17:44N 19°46' W 095°36'313.2
2017-Oct-08 17:30N 19°44' W 095°38'612.8
2017-Oct-08 17:00N 19°38' W 095°42'  

Dump ship's entire track history